sensor_id;sensor_type;location;lat;lon;timestamp;P1;durP1;ratioP1;P2;durP2;ratioP2
47167;SDS011;32931;47.778;17.806;2024-03-23T00:53:58;20.50;;;13.95;;
47167;SDS011;32931;47.778;17.806;2024-03-23T00:56:24;18.75;;;11.77;;
47167;SDS011;32931;47.778;17.806;2024-03-23T00:58:50;21.75;;;14.20;;
47167;SDS011;32931;47.778;17.806;2024-03-23T01:01:16;30.42;;;17.17;;
47167;SDS011;32931;47.778;17.806;2024-03-23T01:03:42;21.40;;;11.90;;
47167;SDS011;32931;47.778;17.806;2024-03-23T01:06:09;23.85;;;13.80;;
47167;SDS011;32931;47.778;17.806;2024-03-23T01:08:35;21.33;;;13.55;;
47167;SDS011;32931;47.778;17.806;2024-03-23T01:11:01;22.60;;;12.82;;
47167;SDS011;32931;47.778;17.806;2024-03-23T01:13:30;21.33;;;14.70;;
47167;SDS011;32931;47.778;17.806;2024-03-23T01:15:56;22.58;;;14.15;;
47167;SDS011;32931;47.778;17.806;2024-03-23T01:18:23;22.90;;;14.63;;
47167;SDS011;32931;47.778;17.806;2024-03-23T01:20:49;20.83;;;12.68;;
47167;SDS011;32931;47.778;17.806;2024-03-23T01:23:15;13.85;;;10.20;;
47167;SDS011;32931;47.778;17.806;2024-03-23T01:25:42;15.73;;;10.25;;
47167;SDS011;32931;47.778;17.806;2024-03-23T01:28:08;17.52;;;10.57;;
47167;SDS011;32931;47.778;17.806;2024-03-23T01:30:35;14.15;;;9.27;;
47167;SDS011;32931;47.778;17.806;2024-03-23T01:33:01;13.27;;;9.57;;
47167;SDS011;32931;47.778;17.806;2024-03-23T01:35:30;15.38;;;9.65;;
47167;SDS011;32931;47.778;17.806;2024-03-23T01:37:57;14.35;;;9.77;;
47167;SDS011;32931;47.778;17.806;2024-03-23T01:40:23;17.23;;;9.73;;
47167;SDS011;32931;47.778;17.806;2024-03-23T01:43:00;21.38;;;10.13;;
47167;SDS011;32931;47.778;17.806;2024-03-23T01:45:29;14.68;;;10.13;;
47167;SDS011;32931;47.778;17.806;2024-03-23T01:47:59;17.27;;;10.77;;
47167;SDS011;32931;47.778;17.806;2024-03-23T01:50:26;16.55;;;10.90;;
47167;SDS011;32931;47.778;17.806;2024-03-23T01:52:53;16.92;;;10.20;;
47167;SDS011;32931;47.778;17.806;2024-03-23T01:55:20;16.60;;;10.00;;
47167;SDS011;32931;47.778;17.806;2024-03-23T01:57:46;13.40;;;9.90;;
47167;SDS011;32931;47.778;17.806;2024-03-23T02:00:12;15.02;;;10.30;;
47167;SDS011;32931;47.778;17.806;2024-03-23T02:02:43;14.82;;;10.10;;
47167;SDS011;32931;47.778;17.806;2024-03-23T02:05:12;15.52;;;9.90;;
47167;SDS011;32931;47.778;17.806;2024-03-23T02:07:40;12.55;;;10.10;;
47167;SDS011;32931;47.778;17.806;2024-03-23T02:10:07;14.07;;;9.82;;
47167;SDS011;32931;47.778;17.806;2024-03-23T02:12:35;14.55;;;9.50;;
47167;SDS011;32931;47.778;17.806;2024-03-23T02:15:02;13.43;;;10.07;;
47167;SDS011;32931;47.778;17.806;2024-03-23T02:17:30;16.40;;;9.77;;
47167;SDS011;32931;47.778;17.806;2024-03-23T02:19:57;18.88;;;9.93;;
47167;SDS011;32931;47.778;17.806;2024-03-23T02:22:23;14.23;;;10.27;;
47167;SDS011;32931;47.778;17.806;2024-03-23T02:24:49;18.75;;;10.10;;
47167;SDS011;32931;47.778;17.806;2024-03-23T02:27:16;12.85;;;9.35;;
47167;SDS011;32931;47.778;17.806;2024-03-23T02:29:42;18.27;;;9.93;;
47167;SDS011;32931;47.778;17.806;2024-03-23T02:32:08;21.98;;;10.68;;
47167;SDS011;32931;47.778;17.806;2024-03-23T02:34:35;18.15;;;9.45;;
47167;SDS011;32931;47.778;17.806;2024-03-23T02:37:01;18.13;;;10.20;;
47167;SDS011;32931;47.778;17.806;2024-03-23T02:39:27;12.48;;;9.43;;
47167;SDS011;32931;47.778;17.806;2024-03-23T02:41:54;17.90;;;10.45;;
47167;SDS011;32931;47.778;17.806;2024-03-23T02:44:20;17.58;;;10.32;;
47167;SDS011;32931;47.778;17.806;2024-03-23T02:46:46;16.50;;;10.48;;
47167;SDS011;32931;47.778;17.806;2024-03-23T02:49:12;16.58;;;10.60;;
47167;SDS011;32931;47.778;17.806;2024-03-23T02:51:39;16.83;;;10.85;;
47167;SDS011;32931;47.778;17.806;2024-03-23T02:54:06;17.48;;;10.77;;
47167;SDS011;32931;47.778;17.806;2024-03-23T02:56:32;15.52;;;11.13;;
47167;SDS011;32931;47.778;17.806;2024-03-23T02:58:58;16.48;;;10.77;;
47167;SDS011;32931;47.778;17.806;2024-03-23T03:01:25;17.30;;;10.57;;
47167;SDS011;32931;47.778;17.806;2024-03-23T03:03:51;16.98;;;11.30;;
47167;SDS011;32931;47.778;17.806;2024-03-23T03:06:26;17.75;;;11.27;;
47167;SDS011;32931;47.778;17.806;2024-03-23T03:08:53;15.32;;;10.95;;
47167;SDS011;32931;47.778;17.806;2024-03-23T03:11:19;17.85;;;10.95;;
47167;SDS011;32931;47.778;17.806;2024-03-23T03:13:45;17.85;;;11.68;;
47167;SDS011;32931;47.778;17.806;2024-03-23T03:16:11;16.63;;;10.98;;
47167;SDS011;32931;47.778;17.806;2024-03-23T03:18:38;19.48;;;11.23;;
47167;SDS011;32931;47.778;17.806;2024-03-23T03:21:06;22.65;;;11.88;;
47167;SDS011;32931;47.778;17.806;2024-03-23T03:23:37;18.42;;;11.57;;
47167;SDS011;32931;47.778;17.806;2024-03-23T03:26:03;18.23;;;11.68;;
47167;SDS011;32931;47.778;17.806;2024-03-23T03:28:33;18.23;;;11.52;;
47167;SDS011;32931;47.778;17.806;2024-03-23T03:31:00;16.90;;;11.70;;
47167;SDS011;32931;47.778;17.806;2024-03-23T03:33:28;14.70;;;10.75;;
47167;SDS011;32931;47.778;17.806;2024-03-23T03:35:54;17.25;;;11.07;;
47167;SDS011;32931;47.778;17.806;2024-03-23T03:38:21;19.80;;;11.65;;
47167;SDS011;32931;47.778;17.806;2024-03-23T03:40:47;15.88;;;11.52;;
47167;SDS011;32931;47.778;17.806;2024-03-23T03:43:13;17.67;;;10.68;;
47167;SDS011;32931;47.778;17.806;2024-03-23T03:45:39;16.20;;;10.10;;
47167;SDS011;32931;47.778;17.806;2024-03-23T03:48:06;18.13;;;10.70;;
47167;SDS011;32931;47.778;17.806;2024-03-23T03:50:32;14.15;;;10.35;;
47167;SDS011;32931;47.778;17.806;2024-03-23T03:52:59;16.33;;;10.77;;
47167;SDS011;32931;47.778;17.806;2024-03-23T03:55:25;20.27;;;11.20;;
47167;SDS011;32931;47.778;17.806;2024-03-23T03:57:51;15.35;;;10.73;;
47167;SDS011;32931;47.778;17.806;2024-03-23T04:00:17;17.20;;;10.95;;
47167;SDS011;32931;47.778;17.806;2024-03-23T04:02:43;17.67;;;11.00;;
47167;SDS011;32931;47.778;17.806;2024-03-23T04:05:09;17.17;;;10.43;;
47167;SDS011;32931;47.778;17.806;2024-03-23T04:07:36;17.52;;;10.60;;
47167;SDS011;32931;47.778;17.806;2024-03-23T04:10:02;16.92;;;10.75;;
47167;SDS011;32931;47.778;17.806;2024-03-23T04:12:32;22.25;;;11.25;;
47167;SDS011;32931;47.778;17.806;2024-03-23T04:14:59;17.30;;;10.20;;
47167;SDS011;32931;47.778;17.806;2024-03-23T04:17:26;17.42;;;10.65;;
47167;SDS011;32931;47.778;17.806;2024-03-23T04:19:57;15.85;;;10.73;;
47167;SDS011;32931;47.778;17.806;2024-03-23T04:22:24;14.80;;;10.38;;
47167;SDS011;32931;47.778;17.806;2024-03-23T04:24:53;15.98;;;10.38;;
47167;SDS011;32931;47.778;17.806;2024-03-23T04:27:23;21.58;;;10.32;;
47167;SDS011;32931;47.778;17.806;2024-03-23T04:29:49;15.52;;;10.15;;
47167;SDS011;32931;47.778;17.806;2024-03-23T04:32:16;18.13;;;10.50;;
47167;SDS011;32931;47.778;17.806;2024-03-23T04:34:43;15.32;;;10.82;;
47167;SDS011;32931;47.778;17.806;2024-03-23T04:37:10;18.77;;;10.60;;
47167;SDS011;32931;47.778;17.806;2024-03-23T04:39:36;19.00;;;10.52;;
47167;SDS011;32931;47.778;17.806;2024-03-23T04:42:03;14.60;;;10.25;;
47167;SDS011;32931;47.778;17.806;2024-03-23T04:44:30;13.25;;;9.70;;
47167;SDS011;32931;47.778;17.806;2024-03-23T04:46:57;21.80;;;11.23;;
47167;SDS011;32931;47.778;17.806;2024-03-23T04:49:23;16.63;;;10.32;;
47167;SDS011;32931;47.778;17.806;2024-03-23T04:51:49;19.13;;;13.20;;
47167;SDS011;32931;47.778;17.806;2024-03-23T04:54:15;18.02;;;13.88;;
47167;SDS011;32931;47.778;17.806;2024-03-23T04:56:41;17.10;;;12.23;;
47167;SDS011;32931;47.778;17.806;2024-03-23T04:59:08;20.98;;;11.57;;
47167;SDS011;32931;47.778;17.806;2024-03-23T05:01:34;14.85;;;10.77;;
47167;SDS011;32931;47.778;17.806;2024-03-23T05:04:01;16.15;;;11.60;;
47167;SDS011;32931;47.778;17.806;2024-03-23T05:06:27;22.58;;;15.95;;
47167;SDS011;32931;47.778;17.806;2024-03-23T05:08:54;35.72;;;25.85;;
47167;SDS011;32931;47.778;17.806;2024-03-23T05:11:20;38.70;;;31.85;;
47167;SDS011;32931;47.778;17.806;2024-03-23T05:13:46;32.58;;;25.30;;
47167;SDS011;32931;47.778;17.806;2024-03-23T05:16:12;24.55;;;20.13;;
47167;SDS011;32931;47.778;17.806;2024-03-23T05:18:38;19.63;;;16.20;;
47167;SDS011;32931;47.778;17.806;2024-03-23T05:21:04;24.35;;;15.98;;
47167;SDS011;32931;47.778;17.806;2024-03-23T05:23:31;22.83;;;15.55;;
47167;SDS011;32931;47.778;17.806;2024-03-23T05:25:57;25.00;;;16.52;;
47167;SDS011;32931;47.778;17.806;2024-03-23T05:28:23;20.85;;;16.15;;
47167;SDS011;32931;47.778;17.806;2024-03-23T05:30:52;25.30;;;19.15;;
47167;SDS011;32931;47.778;17.806;2024-03-23T05:33:20;30.30;;;22.83;;
47167;SDS011;32931;47.778;17.806;2024-03-23T05:35:46;31.58;;;23.55;;
47167;SDS011;32931;47.778;17.806;2024-03-23T05:38:21;24.75;;;21.60;;
47167;SDS011;32931;47.778;17.806;2024-03-23T05:40:57;24.90;;;16.45;;
47167;SDS011;32931;47.778;17.806;2024-03-23T05:43:24;21.80;;;14.30;;
47167;SDS011;32931;47.778;17.806;2024-03-23T05:45:57;22.40;;;15.85;;
47167;SDS011;32931;47.778;17.806;2024-03-23T05:48:25;27.88;;;13.95;;
47167;SDS011;32931;47.778;17.806;2024-03-23T05:50:52;18.60;;;12.30;;
47167;SDS011;32931;47.778;17.806;2024-03-23T05:53:18;18.80;;;13.02;;
47167;SDS011;32931;47.778;17.806;2024-03-23T05:55:48;17.35;;;12.30;;
47167;SDS011;32931;47.778;17.806;2024-03-23T05:58:15;20.70;;;13.77;;
47167;SDS011;32931;47.778;17.806;2024-03-23T06:00:42;18.17;;;12.57;;
47167;SDS011;32931;47.778;17.806;2024-03-23T06:03:08;19.42;;;12.85;;
47167;SDS011;32931;47.778;17.806;2024-03-23T06:05:36;16.08;;;12.57;;
47167;SDS011;32931;47.778;17.806;2024-03-23T06:08:03;17.85;;;12.57;;
47167;SDS011;32931;47.778;17.806;2024-03-23T06:10:29;17.70;;;12.45;;
47167;SDS011;32931;47.778;17.806;2024-03-23T06:12:57;22.05;;;12.82;;
47167;SDS011;32931;47.778;17.806;2024-03-23T06:15:24;23.30;;;12.60;;
47167;SDS011;32931;47.778;17.806;2024-03-23T06:17:52;23.83;;;13.85;;
47167;SDS011;32931;47.778;17.806;2024-03-23T06:20:18;23.80;;;14.43;;
47167;SDS011;32931;47.778;17.806;2024-03-23T06:22:45;21.45;;;13.60;;
47167;SDS011;32931;47.778;17.806;2024-03-23T06:25:11;19.60;;;13.93;;
47167;SDS011;32931;47.778;17.806;2024-03-23T06:27:38;20.88;;;14.20;;
47167;SDS011;32931;47.778;17.806;2024-03-23T06:30:05;19.40;;;13.23;;
47167;SDS011;32931;47.778;17.806;2024-03-23T06:32:32;24.02;;;13.60;;
47167;SDS011;32931;47.778;17.806;2024-03-23T06:34:58;21.55;;;13.48;;
47167;SDS011;32931;47.778;17.806;2024-03-23T06:37:24;17.77;;;13.00;;
47167;SDS011;32931;47.778;17.806;2024-03-23T06:39:51;17.23;;;12.75;;
47167;SDS011;32931;47.778;17.806;2024-03-23T06:42:17;19.88;;;13.48;;
47167;SDS011;32931;47.778;17.806;2024-03-23T06:44:43;19.98;;;12.95;;
47167;SDS011;32931;47.778;17.806;2024-03-23T06:47:09;17.30;;;13.65;;
47167;SDS011;32931;47.778;17.806;2024-03-23T06:49:36;20.65;;;13.32;;
47167;SDS011;32931;47.778;17.806;2024-03-23T06:52:02;20.40;;;13.25;;
47167;SDS011;32931;47.778;17.806;2024-03-23T06:54:28;18.90;;;12.63;;
47167;SDS011;32931;47.778;17.806;2024-03-23T06:56:54;20.70;;;13.02;;
47167;SDS011;32931;47.778;17.806;2024-03-23T06:59:20;17.40;;;12.88;;
47167;SDS011;32931;47.778;17.806;2024-03-23T07:01:46;18.23;;;12.75;;
47167;SDS011;32931;47.778;17.806;2024-03-23T07:04:13;18.92;;;12.57;;
47167;SDS011;32931;47.778;17.806;2024-03-23T07:06:42;22.67;;;12.93;;
47167;SDS011;32931;47.778;17.806;2024-03-23T07:09:09;18.23;;;12.88;;
47167;SDS011;32931;47.778;17.806;2024-03-23T07:11:36;17.27;;;12.52;;
47167;SDS011;32931;47.778;17.806;2024-03-23T07:14:02;20.00;;;12.77;;
47167;SDS011;32931;47.778;17.806;2024-03-23T07:16:29;17.38;;;12.85;;
47167;SDS011;32931;47.778;17.806;2024-03-23T07:18:55;23.90;;;13.52;;
47167;SDS011;32931;47.778;17.806;2024-03-23T07:21:21;23.17;;;13.38;;
47167;SDS011;32931;47.778;17.806;2024-03-23T07:23:47;21.90;;;12.75;;
47167;SDS011;32931;47.778;17.806;2024-03-23T07:26:13;17.08;;;13.48;;
47167;SDS011;32931;47.778;17.806;2024-03-23T07:28:40;18.33;;;14.52;;
47167;SDS011;32931;47.778;17.806;2024-03-23T07:31:11;18.27;;;12.85;;
47167;SDS011;32931;47.778;17.806;2024-03-23T07:33:43;16.10;;;12.40;;
47167;SDS011;32931;47.778;17.806;2024-03-23T07:36:11;18.48;;;13.63;;
47167;SDS011;32931;47.778;17.806;2024-03-23T07:38:39;21.15;;;13.23;;
47167;SDS011;32931;47.778;17.806;2024-03-23T07:41:07;19.58;;;13.48;;
47167;SDS011;32931;47.778;17.806;2024-03-23T07:43:35;15.10;;;11.63;;
47167;SDS011;32931;47.778;17.806;2024-03-23T07:46:02;19.70;;;13.07;;
47167;SDS011;32931;47.778;17.806;2024-03-23T07:48:31;19.42;;;12.93;;
47167;SDS011;32931;47.778;17.806;2024-03-23T07:51:01;23.77;;;12.82;;
47167;SDS011;32931;47.778;17.806;2024-03-23T07:53:30;20.77;;;12.75;;
47167;SDS011;32931;47.778;17.806;2024-03-23T07:55:58;17.98;;;12.98;;
47167;SDS011;32931;47.778;17.806;2024-03-23T07:58:26;15.98;;;12.70;;
47167;SDS011;32931;47.778;17.806;2024-03-23T08:00:55;15.90;;;8.90;;
47167;SDS011;32931;47.778;17.806;2024-03-23T08:03:22;12.43;;;8.15;;
47167;SDS011;32931;47.778;17.806;2024-03-23T08:05:48;11.00;;;7.65;;
47167;SDS011;32931;47.778;17.806;2024-03-23T08:08:15;13.27;;;7.15;;
47167;SDS011;32931;47.778;17.806;2024-03-23T08:10:51;12.02;;;7.53;;
47167;SDS011;32931;47.778;17.806;2024-03-23T08:13:18;11.93;;;7.97;;
47167;SDS011;32931;47.778;17.806;2024-03-23T08:15:44;12.40;;;7.63;;
47167;SDS011;32931;47.778;17.806;2024-03-23T08:18:12;14.35;;;7.38;;
47167;SDS011;32931;47.778;17.806;2024-03-23T08:20:40;14.18;;;7.57;;
47167;SDS011;32931;47.778;17.806;2024-03-23T08:23:07;15.23;;;7.70;;
47167;SDS011;32931;47.778;17.806;2024-03-23T08:25:34;11.95;;;7.80;;
47167;SDS011;32931;47.778;17.806;2024-03-23T08:28:00;12.10;;;8.00;;
47167;SDS011;32931;47.778;17.806;2024-03-23T08:30:27;11.93;;;7.90;;
47167;SDS011;32931;47.778;17.806;2024-03-23T08:32:54;14.20;;;7.82;;
47167;SDS011;32931;47.778;17.806;2024-03-23T08:35:20;12.98;;;7.65;;
47167;SDS011;32931;47.778;17.806;2024-03-23T08:37:46;15.65;;;8.43;;
47167;SDS011;32931;47.778;17.806;2024-03-23T08:40:12;13.40;;;8.40;;
47167;SDS011;32931;47.778;17.806;2024-03-23T08:42:38;15.77;;;8.45;;
47167;SDS011;32931;47.778;17.806;2024-03-23T08:45:04;14.73;;;8.55;;
47167;SDS011;32931;47.778;17.806;2024-03-23T08:47:35;13.80;;;7.70;;
47167;SDS011;32931;47.778;17.806;2024-03-23T08:50:02;13.45;;;8.38;;
47167;SDS011;32931;47.778;17.806;2024-03-23T08:52:28;18.48;;;7.43;;
47167;SDS011;32931;47.778;17.806;2024-03-23T08:54:55;13.63;;;7.28;;
47167;SDS011;32931;47.778;17.806;2024-03-23T08:57:22;9.75;;;6.75;;
47167;SDS011;32931;47.778;17.806;2024-03-23T08:59:49;14.50;;;6.93;;
47167;SDS011;32931;47.778;17.806;2024-03-23T09:02:15;11.07;;;7.20;;
47167;SDS011;32931;47.778;17.806;2024-03-23T09:04:41;15.65;;;7.68;;
47167;SDS011;32931;47.778;17.806;2024-03-23T09:07:09;13.25;;;6.88;;
47167;SDS011;32931;47.778;17.806;2024-03-23T09:09:37;13.25;;;6.78;;
47167;SDS011;32931;47.778;17.806;2024-03-23T09:12:04;10.52;;;6.70;;
47167;SDS011;32931;47.778;17.806;2024-03-23T09:14:30;10.75;;;6.60;;
47167;SDS011;32931;47.778;17.806;2024-03-23T09:16:57;12.25;;;7.05;;
47167;SDS011;32931;47.778;17.806;2024-03-23T09:19:23;13.40;;;6.65;;
47167;SDS011;32931;47.778;17.806;2024-03-23T09:21:49;13.30;;;7.10;;
47167;SDS011;32931;47.778;17.806;2024-03-23T09:24:15;12.90;;;6.90;;
47167;SDS011;32931;47.778;17.806;2024-03-23T09:26:41;14.65;;;6.95;;
47167;SDS011;32931;47.778;17.806;2024-03-23T09:29:07;13.13;;;7.40;;
47167;SDS011;32931;47.778;17.806;2024-03-23T09:31:33;12.25;;;7.38;;
47167;SDS011;32931;47.778;17.806;2024-03-23T09:34:00;12.02;;;7.10;;
47167;SDS011;32931;47.778;17.806;2024-03-23T09:36:26;15.25;;;7.32;;
47167;SDS011;32931;47.778;17.806;2024-03-23T09:38:52;15.23;;;7.50;;
47167;SDS011;32931;47.778;17.806;2024-03-23T09:41:18;11.20;;;7.38;;
47167;SDS011;32931;47.778;17.806;2024-03-23T09:43:45;12.35;;;7.22;;
47167;SDS011;32931;47.778;17.806;2024-03-23T09:46:14;15.90;;;7.80;;
47167;SDS011;32931;47.778;17.806;2024-03-23T09:48:40;13.68;;;7.60;;
47167;SDS011;32931;47.778;17.806;2024-03-23T09:51:09;12.60;;;7.32;;
47167;SDS011;32931;47.778;17.806;2024-03-23T09:53:36;16.70;;;8.02;;
47167;SDS011;32931;47.778;17.806;2024-03-23T09:56:03;12.77;;;8.32;;
47167;SDS011;32931;47.778;17.806;2024-03-23T09:58:30;14.90;;;8.07;;
47167;SDS011;32931;47.778;17.806;2024-03-23T10:00:57;15.68;;;8.68;;
47167;SDS011;32931;47.778;17.806;2024-03-23T10:03:24;15.55;;;7.68;;
47167;SDS011;32931;47.778;17.806;2024-03-23T10:06:02;13.02;;;7.82;;
47167;SDS011;32931;47.778;17.806;2024-03-23T10:08:30;12.45;;;7.68;;
47167;SDS011;32931;47.778;17.806;2024-03-23T10:10:58;13.10;;;7.68;;
47167;SDS011;32931;47.778;17.806;2024-03-23T10:13:39;14.77;;;7.90;;
47167;SDS011;32931;47.778;17.806;2024-03-23T10:16:11;14.43;;;7.37;;
47167;SDS011;32931;47.778;17.806;2024-03-23T10:18:38;21.67;;;8.02;;
47167;SDS011;32931;47.778;17.806;2024-03-23T10:23:33;13.80;;;7.57;;
47167;SDS011;32931;47.778;17.806;2024-03-23T10:29:01;16.73;;;8.05;;
47167;SDS011;32931;47.778;17.806;2024-03-23T10:31:33;15.52;;;7.53;;
47167;SDS011;32931;47.778;17.806;2024-03-23T10:34:02;16.63;;;7.53;;
47167;SDS011;32931;47.778;17.806;2024-03-23T10:36:29;11.48;;;7.13;;
47167;SDS011;32931;47.778;17.806;2024-03-23T10:38:56;11.25;;;7.00;;
47167;SDS011;32931;47.778;17.806;2024-03-23T10:41:29;10.23;;;6.50;;
47167;SDS011;32931;47.778;17.806;2024-03-23T10:43:57;8.77;;;6.75;;
47167;SDS011;32931;47.778;17.806;2024-03-23T10:46:25;15.63;;;7.07;;
47167;SDS011;32931;47.778;17.806;2024-03-23T10:48:51;11.55;;;7.40;;
47167;SDS011;32931;47.778;17.806;2024-03-23T10:51:17;21.98;;;7.40;;
47167;SDS011;32931;47.778;17.806;2024-03-23T10:53:43;10.95;;;7.00;;
47167;SDS011;32931;47.778;17.806;2024-03-23T10:56:11;13.35;;;7.43;;
47167;SDS011;32931;47.778;17.806;2024-03-23T10:58:43;13.05;;;7.68;;
47167;SDS011;32931;47.778;17.806;2024-03-23T11:01:15;12.82;;;7.78;;
47167;SDS011;32931;47.778;17.806;2024-03-23T11:03:45;13.00;;;8.02;;
47167;SDS011;32931;47.778;17.806;2024-03-23T11:06:35;13.27;;;7.53;;
47167;SDS011;32931;47.778;17.806;2024-03-23T11:09:28;14.60;;;7.93;;
47167;SDS011;32931;47.778;17.806;2024-03-23T11:14:48;12.32;;;7.95;;
47167;SDS011;32931;47.778;17.806;2024-03-23T11:17:31;12.40;;;7.88;;
47167;SDS011;32931;47.778;17.806;2024-03-23T11:20:01;11.93;;;7.18;;
47167;SDS011;32931;47.778;17.806;2024-03-23T11:22:43;10.60;;;7.35;;
47167;SDS011;32931;47.778;17.806;2024-03-23T11:25:18;17.33;;;7.50;;
47167;SDS011;32931;47.778;17.806;2024-03-23T11:27:52;13.48;;;8.38;;
47167;SDS011;32931;47.778;17.806;2024-03-23T11:32:48;14.25;;;8.57;;
47167;SDS011;32931;47.778;17.806;2024-03-23T11:38:13;11.75;;;7.70;;
47167;SDS011;32931;47.778;17.806;2024-03-23T11:40:44;11.45;;;7.30;;
47167;SDS011;32931;47.778;17.806;2024-03-23T11:43:15;14.45;;;8.02;;
47167;SDS011;32931;47.778;17.806;2024-03-23T11:48:10;16.98;;;7.95;;
47167;SDS011;32931;47.778;17.806;2024-03-23T11:50:38;13.10;;;8.15;;
47167;SDS011;32931;47.778;17.806;2024-03-23T11:53:07;14.57;;;7.68;;
47167;SDS011;32931;47.778;17.806;2024-03-23T11:55:39;19.77;;;7.60;;
47167;SDS011;32931;47.778;17.806;2024-03-23T11:58:06;14.30;;;7.80;;
47167;SDS011;32931;47.778;17.806;2024-03-23T12:00:34;12.05;;;8.30;;
47167;SDS011;32931;47.778;17.806;2024-03-23T12:03:01;14.93;;;7.60;;
47167;SDS011;32931;47.778;17.806;2024-03-23T12:05:28;14.00;;;8.15;;
47167;SDS011;32931;47.778;17.806;2024-03-23T12:07:55;13.60;;;7.85;;
47167;SDS011;32931;47.778;17.806;2024-03-23T12:10:40;14.00;;;7.25;;
47167;SDS011;32931;47.778;17.806;2024-03-23T12:13:06;11.02;;;7.03;;
47167;SDS011;32931;47.778;17.806;2024-03-23T12:15:33;13.85;;;6.60;;
47167;SDS011;32931;47.778;17.806;2024-03-23T12:18:08;9.05;;;6.10;;
47167;SDS011;32931;47.778;17.806;2024-03-23T12:20:36;30.80;;;6.97;;
47167;SDS011;32931;47.778;17.806;2024-03-23T12:23:10;9.52;;;6.03;;
47167;SDS011;32931;47.778;17.806;2024-03-23T12:25:40;12.73;;;6.38;;
47167;SDS011;32931;47.778;17.806;2024-03-23T12:28:07;11.48;;;7.00;;
47167;SDS011;32931;47.778;17.806;2024-03-23T12:30:33;19.02;;;7.30;;
47167;SDS011;32931;47.778;17.806;2024-03-23T12:33:01;26.83;;;7.63;;
47167;SDS011;32931;47.778;17.806;2024-03-23T12:35:28;210.70;;;15.05;;
47167;SDS011;32931;47.778;17.806;2024-03-23T12:37:54;41.53;;;7.53;;
47167;SDS011;32931;47.778;17.806;2024-03-23T12:40:21;35.42;;;7.50;;
47167;SDS011;32931;47.778;17.806;2024-03-23T12:42:47;16.15;;;6.50;;
47167;SDS011;32931;47.778;17.806;2024-03-23T12:45:13;12.52;;;6.38;;
47167;SDS011;32931;47.778;17.806;2024-03-23T12:47:40;15.70;;;6.30;;
47167;SDS011;32931;47.778;17.806;2024-03-23T12:50:06;16.02;;;5.63;;
47167;SDS011;32931;47.778;17.806;2024-03-23T12:52:32;17.83;;;5.93;;
47167;SDS011;32931;47.778;17.806;2024-03-23T12:54:59;16.08;;;6.30;;
47167;SDS011;32931;47.778;17.806;2024-03-23T12:57:25;24.50;;;6.10;;
47167;SDS011;32931;47.778;17.806;2024-03-23T12:59:52;12.55;;;5.38;;
47167;SDS011;32931;47.778;17.806;2024-03-23T13:02:19;17.00;;;6.03;;
47167;SDS011;32931;47.778;17.806;2024-03-23T13:04:46;12.00;;;5.35;;
47167;SDS011;32931;47.778;17.806;2024-03-23T13:07:15;13.02;;;4.90;;
47167;SDS011;32931;47.778;17.806;2024-03-23T13:09:42;6.43;;;4.45;;
47167;SDS011;32931;47.778;17.806;2024-03-23T13:12:08;11.38;;;5.28;;
47167;SDS011;32931;47.778;17.806;2024-03-23T13:14:35;11.23;;;5.15;;
47167;SDS011;32931;47.778;17.806;2024-03-23T13:17:01;11.18;;;5.35;;
47167;SDS011;32931;47.778;17.806;2024-03-23T13:19:28;12.90;;;5.70;;
47167;SDS011;32931;47.778;17.806;2024-03-23T13:21:59;8.70;;;5.63;;
47167;SDS011;32931;47.778;17.806;2024-03-23T13:24:26;10.88;;;6.28;;
47167;SDS011;32931;47.778;17.806;2024-03-23T13:26:54;12.63;;;5.97;;
47167;SDS011;32931;47.778;17.806;2024-03-23T13:29:20;10.07;;;5.93;;
47167;SDS011;32931;47.778;17.806;2024-03-23T13:31:48;12.20;;;5.70;;
47167;SDS011;32931;47.778;17.806;2024-03-23T13:34:15;9.35;;;6.15;;
47167;SDS011;32931;47.778;17.806;2024-03-23T13:36:42;13.68;;;6.47;;
47167;SDS011;32931;47.778;17.806;2024-03-23T13:39:12;13.65;;;6.13;;
47167;SDS011;32931;47.778;17.806;2024-03-23T13:41:39;11.02;;;5.43;;
47167;SDS011;32931;47.778;17.806;2024-03-23T13:44:06;13.65;;;5.97;;
47167;SDS011;32931;47.778;17.806;2024-03-23T13:46:33;9.48;;;6.25;;
47167;SDS011;32931;47.778;17.806;2024-03-23T13:48:59;9.32;;;5.85;;
47167;SDS011;32931;47.778;17.806;2024-03-23T13:51:26;13.82;;;5.72;;
47167;SDS011;32931;47.778;17.806;2024-03-23T13:53:53;10.25;;;5.55;;
47167;SDS011;32931;47.778;17.806;2024-03-23T13:56:20;12.00;;;5.80;;
47167;SDS011;32931;47.778;17.806;2024-03-23T13:58:47;11.85;;;5.55;;
47167;SDS011;32931;47.778;17.806;2024-03-23T14:01:13;12.35;;;5.95;;
47167;SDS011;32931;47.778;17.806;2024-03-23T14:03:41;7.40;;;5.25;;
47167;SDS011;32931;47.778;17.806;2024-03-23T14:06:08;11.48;;;5.30;;
47167;SDS011;32931;47.778;17.806;2024-03-23T14:08:35;9.40;;;5.63;;
47167;SDS011;32931;47.778;17.806;2024-03-23T14:11:07;8.20;;;5.00;;
47167;SDS011;32931;47.778;17.806;2024-03-23T14:13:34;7.63;;;4.63;;
47167;SDS011;32931;47.778;17.806;2024-03-23T14:16:01;8.52;;;4.78;;
47167;SDS011;32931;47.778;17.806;2024-03-23T14:18:28;11.68;;;4.68;;
47167;SDS011;32931;47.778;17.806;2024-03-23T14:20:58;10.05;;;4.63;;
47167;SDS011;32931;47.778;17.806;2024-03-23T14:23:25;10.85;;;4.43;;
47167;SDS011;32931;47.778;17.806;2024-03-23T14:25:56;9.43;;;4.40;;
47167;SDS011;32931;47.778;17.806;2024-03-23T14:28:22;11.10;;;4.63;;
47167;SDS011;32931;47.778;17.806;2024-03-23T14:30:50;7.50;;;4.07;;
47167;SDS011;32931;47.778;17.806;2024-03-23T14:33:16;8.75;;;4.43;;
47167;SDS011;32931;47.778;17.806;2024-03-23T14:35:51;6.93;;;4.35;;
47167;SDS011;32931;47.778;17.806;2024-03-23T14:38:23;12.75;;;4.70;;
47167;SDS011;32931;47.778;17.806;2024-03-23T14:40:50;11.20;;;4.28;;
47167;SDS011;32931;47.778;17.806;2024-03-23T14:43:18;8.32;;;4.57;;
47167;SDS011;32931;47.778;17.806;2024-03-23T14:48:33;8.63;;;4.28;;
47167;SDS011;32931;47.778;17.806;2024-03-23T14:51:00;9.90;;;4.30;;
47167;SDS011;32931;47.778;17.806;2024-03-23T14:53:30;12.25;;;4.30;;
47167;SDS011;32931;47.778;17.806;2024-03-23T14:55:57;11.95;;;4.22;;
47167;SDS011;32931;47.778;17.806;2024-03-23T14:58:23;8.85;;;5.30;;
47167;SDS011;32931;47.778;17.806;2024-03-23T15:00:50;10.20;;;4.80;;
47167;SDS011;32931;47.778;17.806;2024-03-23T15:03:17;7.53;;;4.93;;
47167;SDS011;32931;47.778;17.806;2024-03-23T15:05:57;11.15;;;4.53;;
47167;SDS011;32931;47.778;17.806;2024-03-23T15:08:24;11.88;;;4.63;;
47167;SDS011;32931;47.778;17.806;2024-03-23T15:10:51;8.93;;;4.28;;
47167;SDS011;32931;47.778;17.806;2024-03-23T15:13:17;10.93;;;4.95;;
47167;SDS011;32931;47.778;17.806;2024-03-23T15:15:43;54.05;;;3.88;;
47167;SDS011;32931;47.778;17.806;2024-03-23T15:18:11;44.20;;;2.80;;
47167;SDS011;32931;47.778;17.806;2024-03-23T15:20:41;51.70;;;2.28;;
47167;SDS011;32931;47.778;17.806;2024-03-23T15:23:07;39.58;;;1.90;;
47167;SDS011;32931;47.778;17.806;2024-03-23T15:25:34;20.50;;;1.10;;
47167;SDS011;32931;47.778;17.806;2024-03-23T15:28:00;18.92;;;1.33;;
47167;SDS011;32931;47.778;17.806;2024-03-23T15:30:27;12.30;;;0.70;;